Terminal Aerodrome Forecast
Issued by NWS

Home | Current Version | Previous Version | Graphics & Text | Print | Product List | Glossary On
Versions: 1 2 3 4 5 6 7 8 9 10 11 12 13 14 15 16 17 18 19 20 21 22 23
804
FTUS43 KMPX 152340
TAFRWF
TAF
KRWF 152340Z 1600/1624 13008KT P6SM SCT100 OVC200
     FM160600 13008KT P6SM VCSH OVC090
     FM160800 14008KT 5SM SHRA VCTS OVC040CB
     FM161200 13007KT 4SM SHRA BR OVC008
     FM162000 16007KT 5SM BR OVC020 PROB30 1620/1624 3SM TSRA
      OVC030CB=

USA.gov is the U.S. government's official web portal to all federal, state and local government web resources and services.